Wetterdaten: Woche 16.09.13 - 22.09.13 (KW38)
Datum Zeit Temp. Aussen +5cm Feuchte Auss Luftdruck Regen Sonnenschein Regendauer UV Solar Windben
16.09.2013 00:00 11,9 C 10,6 C 95 % 1003,9 hPa 1,2 l/m 0,00 h 0,97 h 0,0 UV-I 0 W/m 11,2 km/h (2 Bft)
16.09.2013 01:00 11,9 C 10,6 C 96 % 1002,8 hPa 1,4 l/m 0,00 h 0,87 h 0,0 UV-I 0 W/m 15,2 km/h (3 Bft)
16.09.2013 02:00 12,1 C 10,8 C 97 % 1001,8 hPa 0,2 l/m 0,00 h 0,47 h 0,0 UV-I 0 W/m 16,2 km/h (3 Bft)
16.09.2013 03:00 12,2 C 11,1 C 97 % 1000,9 hPa 1,0 l/m 0,00 h 0,97 h 0,0 UV-I 0 W/m 15,9 km/h (3 Bft)
16.09.2013 04:00 12,4 C 11,1 C 97 % 1000,6 hPa 0,4 l/m 0,00 h 0,67 h 0,0 UV-I 0 W/m 15,2 km/h (3 Bft)
16.09.2013 05:00 12,7 C 11,2 C 98 % 1000,4 hPa 0,2 l/m 0,00 h 0,60 h 0,0 UV-I 0 W/m 13,8 km/h (3 Bft)
16.09.2013 06:00 12,2 C 11,0 C 97 % 1000,4 hPa 0,4 l/m 0,00 h 0,57 h 0,0 UV-I 0 W/m 4,7 km/h (1 Bft)
16.09.2013 07:00 11,3 C 10,0 C 96 % 1000,7 hPa 0,0 l/m 0,00 h 0,17 h 0,0 UV-I 15 W/m 0,5 km/h (0 Bft)
16.09.2013 08:00 11,8 C 10,8 C 97 % 1000,9 hPa 0,0 l/m 0,10 h 0,10 h 0,0 UV-I 67 W/m 0,6 km/h (0 Bft)
16.09.2013 09:00 11,7 C 10,7 C 96 % 1001,2 hPa 0,4 l/m 0,00 h 0,77 h 0,0 UV-I 55 W/m 3,7 km/h (1 Bft)
16.09.2013 10:00 12,1 C 11,0 C 94 % 1001,3 hPa 0,0 l/m 0,20 h 0,00 h 1,0 UV-I 196 W/m 1,8 km/h (1 Bft)
16.09.2013 11:00 13,7 C 12,2 C 86 % 1001,3 hPa 0,0 l/m 0,30 h 0,00 h 1,2 UV-I 314 W/m 8,0 km/h (2 Bft)
16.09.2013 12:00 14,1 C 12,7 C 76 % 1001,1 hPa 0,0 l/m 0,47 h 0,00 h 1,4 UV-I 398 W/m 12,8 km/h (3 Bft)
16.09.2013 13:00 15,9 C 14,9 C 65 % 1000,9 hPa 0,0 l/m 0,83 h 0,00 h 1,9 UV-I 655 W/m 16,9 km/h (3 Bft)
16.09.2013 14:00 16,2 C 15,1 C 59 % 1000,8 hPa 0,0 l/m 0,77 h 0,00 h 2,3 UV-I 608 W/m 17,0 km/h (3 Bft)
16.09.2013 15:00 15,9 C 14,7 C 56 % 1000,5 hPa 0,0 l/m 0,47 h 0,00 h 1,4 UV-I 369 W/m 17,8 km/h (3 Bft)
16.09.2013 16:00 15,5 C 14,1 C 60 % 1000,4 hPa 0,0 l/m 0,67 h 0,00 h 1,0 UV-I 359 W/m 7,4 km/h (2 Bft)
16.09.2013 17:00 15,4 C 13,6 C 56 % 1000,3 hPa 0,0 l/m 0,43 h 0,00 h 0,5 UV-I 189 W/m 9,6 km/h (2 Bft)
16.09.2013 18:00 14,3 C 12,3 C 59 % 1000,4 hPa 0,0 l/m 0,13 h 0,00 h 0,0 UV-I 64 W/m 3,7 km/h (1 Bft)
16.09.2013 19:00 12,5 C 10,3 C 65 % 1000,6 hPa 0,0 l/m 0,07 h 0,00 h 0,0 UV-I 17 W/m 1,8 km/h (1 Bft)
16.09.2013 20:00 9,7 C 7,7 C 81 % 1001,0 hPa 0,0 l/m 0,00 h 0,00 h 0,0 UV-I 0 W/m 0,0 km/h (0 Bft)
16.09.2013 21:00 8,9 C 7,2 C 91 % 1001,6 hPa 0,6 l/m 0,00 h 0,10 h 0,0 UV-I 0 W/m 0,0 km/h (0 Bft)
16.09.2013 22:00 9,2 C 7,3 C 89 % 1001,8 hPa 0,0 l/m 0,00 h 0,03 h 0,0 UV-I 0 W/m 0,4 km/h (0 Bft)
16.09.2013 23:00 9,1 C 7,1 C 88 % 1001,8 hPa 0,0 l/m 0,00 h 0,00 h 0,0 UV-I 0 W/m 0,7 km/h (0 Bft)
17.09.2013 00:00 8,4 C 6,7 C 88 % 1002,1 hPa 0,0 l/m 0,00 h 0,00 h 0,0 UV-I 0 W/m 1,5 km/h (1 Bft)
17.09.2013 01:00 7,9 C 6,1 C 90 % 1002,3 hPa 0,0 l/m 0,00 h 0,00 h 0,0 UV-I 0 W/m 0,0 km/h (0 Bft)
17.09.2013 02:00 7,8 C 6,1 C 90 % 1002,4 hPa 0,0 l/m 0,00 h 0,00 h 0,0 UV-I 0 W/m 0,0 km/h (0 Bft)
17.09.2013 03:00 7,9 C 6,6 C 91 % 1002,6 hPa 0,0 l/m 0,00 h 0,00 h 0,0 UV-I 0 W/m 0,0 km/h (0 Bft)
17.09.2013 04:00 7,9 C 6,7 C 91 % 1002,6 hPa 0,0 l/m 0,00 h 0,00 h 0,0 UV-I 0 W/m 0,0 km/h (0 Bft)
17.09.2013 05:00 7,8 C 6,7 C 91 % 1002,6 hPa 0,0 l/m 0,00 h 0,00 h 0,0 UV-I 0 W/m 0,0 km/h (0 Bft)
17.09.2013 06:00 7,5 C 6,6 C 91 % 1002,8 hPa 0,0 l/m 0,00 h 0,00 h 0,0 UV-I 0 W/m 0,0 km/h (0 Bft)
17.09.2013 07:00 7,5 C 6,5 C 91 % 1003,2 hPa 0,0 l/m 0,00 h 0,00 h 0,0 UV-I 13 W/m 3,3 km/h (1 Bft)
17.09.2013 08:00 8,2 C 7,2 C 89 % 1003,4 hPa 0,0 l/m 0,10 h 0,00 h 0,0 UV-I 63 W/m 6,8 km/h (2 Bft)
17.09.2013 09:00 9,6 C 8,3 C 85 % 1003,4 hPa 0,0 l/m 0,73 h 0,00 h 0,0 UV-I 242 W/m 8,3 km/h (2 Bft)
17.09.2013 10:00 11,8 C 10,3 C 78 % 1003,6 hPa 0,0 l/m 0,93 h 0,00 h 0,8 UV-I 409 W/m 13,1 km/h (3 Bft)
17.09.2013 11:00 13,1 C 12,3 C 74 % 1003,8 hPa 0,0 l/m 0,63 h 0,00 h 1,3 UV-I 420 W/m 15,2 km/h (3 Bft)
17.09.2013 12:00 13,8 C 13,3 C 72 % 1003,7 hPa 0,0 l/m 0,37 h 0,00 h 1,4 UV-I 408 W/m 13,3 km/h (3 Bft)
17.09.2013 13:00 14,1 C 13,5 C 70 % 1003,4 hPa 0,0 l/m 0,43 h 0,13 h 1,4 UV-I 392 W/m 17,9 km/h (3 Bft)
17.09.2013 14:00 14,1 C 13,6 C 70 % 1002,9 hPa 0,0 l/m 0,33 h 0,03 h 1,3 UV-I 305 W/m 14,3 km/h (3 Bft)
17.09.2013 15:00 13,4 C 12,2 C 75 % 1002,6 hPa 0,0 l/m 0,37 h 0,30 h 1,2 UV-I 303 W/m 11,6 km/h (2 Bft)
17.09.2013 16:00 13,1 C 12,2 C 73 % 1002,2 hPa 0,0 l/m 0,00 h 0,00 h 0,5 UV-I 130 W/m 13,8 km/h (3 Bft)
17.09.2013 17:00 12,1 C 11,3 C 78 % 1001,5 hPa 0,0 l/m 0,00 h 0,00 h 0,0 UV-I 72 W/m 5,6 km/h (1 Bft)
17.09.2013 18:00 11,9 C 10,5 C 80 % 1001,1 hPa 0,0 l/m 0,00 h 0,47 h 0,0 UV-I 27 W/m 5,3 km/h (1 Bft)
17.09.2013 19:00 10,5 C 8,9 C 90 % 1000,9 hPa 0,6 l/m 0,00 h 0,97 h 0,0 UV-I 8 W/m 3,9 km/h (1 Bft)
17.09.2013 20:00 9,8 C 8,7 C 94 % 999,8 hPa 0,6 l/m 0,00 h 0,97 h 0,0 UV-I 0 W/m 3,4 km/h (1 Bft)
17.09.2013 21:00 9,7 C 8,9 C 96 % 998,4 hPa 0,4 l/m 0,00 h 0,93 h 0,0 UV-I 0 W/m 6,2 km/h (2 Bft)
17.09.2013 22:00 9,7 C 8,8 C 97 % 996,7 hPa 1,0 l/m 0,00 h 0,80 h 0,0 UV-I 0 W/m 10,6 km/h (2 Bft)
17.09.2013 23:00 9,8 C 8,9 C 98 % 995,1 hPa 1,2 l/m 0,00 h 0,77 h 0,0 UV-I 0 W/m 10,5 km/h (2 Bft)
18.09.2013 00:00 10,1 C 9,1 C 98 % 993,8 hPa 0,6 l/m 0,00 h 0,37 h 0,0 UV-I 0 W/m 10,3 km/h (2 Bft)
18.09.2013 01:00 10,3 C 9,4 C 98 % 993,0 hPa 0,0 l/m 0,00 h 0,10 h 0,0 UV-I 0 W/m 7,6 km/h (2 Bft)
18.09.2013 02:00 10,7 C 9,8 C 99 % 992,8 hPa 0,0 l/m 0,00 h 0,00 h 0,0 UV-I 0 W/m 1,2 km/h (1 Bft)
18.09.2013 03:00 11,2 C 10,2 C 99 % 993,1 hPa 0,0 l/m 0,00 h 0,00 h 0,0 UV-I 0 W/m 1,7 km/h (1 Bft)
18.09.2013 04:00 11,6 C 10,6 C 99 % 993,8 hPa 0,2 l/m 0,00 h 0,13 h 0,0 UV-I 0 W/m 2,7 km/h (1 Bft)
18.09.2013 05:00 11,3 C 10,3 C 99 % 994,4 hPa 0,0 l/m 0,00 h 0,13 h 0,0 UV-I 0 W/m 1,9 km/h (1 Bft)
18.09.2013 06:00 11,1 C 10,0 C 99 % 995,0 hPa 0,2 l/m 0,00 h 0,77 h 0,0 UV-I 0 W/m 0,3 km/h (0 Bft)
18.09.2013 07:00 10,9 C 10,0 C 99 % 995,8 hPa 0,0 l/m 0,00 h 0,20 h 0,0 UV-I 10 W/m 0,8 km/h (0 Bft)
18.09.2013 08:00 10,8 C 10,0 C 99 % 996,6 hPa 0,0 l/m 0,00 h 0,07 h 0,0 UV-I 31 W/m 1,3 km/h (1 Bft)
18.09.2013 09:00 11,0 C 10,1 C 99 % 997,4 hPa 0,0 l/m 0,00 h 0,00 h 0,0 UV-I 52 W/m 0,4 km/h (0 Bft)
18.09.2013 10:00 11,3 C 10,7 C 99 % 998,2 hPa 0,0 l/m 0,00 h 0,03 h 0,0 UV-I 106 W/m 0,6 km/h (0 Bft)
18.09.2013 11:00 12,3 C 11,7 C 95 % 998,9 hPa 0,0 l/m 0,00 h 0,00 h 0,7 UV-I 193 W/m 4,0 km/h (1 Bft)
18.09.2013 12:00 13,1 C 12,7 C 90 % 999,4 hPa 0,0 l/m 0,00 h 0,00 h 1,1 UV-I 266 W/m 5,8 km/h (2 Bft)
18.09.2013 13:00 13,7 C 13,5 C 84 % 999,9 hPa 0,0 l/m 0,00 h 0,00 h 1,0 UV-I 237 W/m 5,7 km/h (1 Bft)
18.09.2013 14:00 14,0 C 13,9 C 82 % 1000,3 hPa 0,0 l/m 0,00 h 0,00 h 1,0 UV-I 238 W/m 6,5 km/h (2 Bft)
18.09.2013 15:00 14,3 C 13,7 C 80 % 1000,8 hPa 0,0 l/m 0,27 h 0,00 h 1,2 UV-I 275 W/m 6,3 km/h (2 Bft)
18.09.2013 16:00 15,3 C 14,6 C 75 % 1001,1 hPa 0,0 l/m 0,77 h 0,00 h 1,1 UV-I 392 W/m 10,6 km/h (2 Bft)
18.09.2013 17:00 14,2 C 13,3 C 81 % 1001,5 hPa 0,0 l/m 0,00 h 0,00 h 0,0 UV-I 112 W/m 6,6 km/h (2 Bft)
18.09.2013 18:00 13,5 C 12,5 C 85 % 1002,4 hPa 0,0 l/m 0,00 h 0,00 h 0,0 UV-I 44 W/m 6,6 km/h (2 Bft)
18.09.2013 19:00 12,6 C 11,5 C 87 % 1003,4 hPa 0,0 l/m 0,00 h 0,03 h 0,0 UV-I 9 W/m 5,7 km/h (1 Bft)
18.09.2013 20:00 11,8 C 10,4 C 91 % 1004,4 hPa 0,2 l/m 0,00 h 0,57 h 0,0 UV-I 0 W/m 3,8 km/h (1 Bft)
18.09.2013 21:00 11,2 C 9,8 C 95 % 1005,3 hPa 0,0 l/m 0,00 h 0,07 h 0,0 UV-I 0 W/m 3,1 km/h (1 Bft)
18.09.2013 22:00 10,7 C 9,3 C 96 % 1006,0 hPa 0,0 l/m 0,00 h 0,00 h 0,0 UV-I 0 W/m 1,1 km/h (0 Bft)
18.09.2013 23:00 10,1 C 8,8 C 96 % 1006,7 hPa 0,0 l/m 0,00 h 0,03 h 0,0 UV-I 0 W/m 3,2 km/h (1 Bft)
19.09.2013 00:00 10,1 C 8,9 C 95 % 1007,1 hPa 0,0 l/m 0,00 h 0,00 h 0,0 UV-I 0 W/m 5,7 km/h (1 Bft)
19.09.2013 01:00 10,2 C 9,2 C 95 % 1007,8 hPa 0,0 l/m 0,00 h 0,00 h 0,0 UV-I 0 W/m 1,2 km/h (1 Bft)
19.09.2013 02:00 10,2 C 9,4 C 95 % 1008,2 hPa 0,0 l/m 0,00 h 0,00 h 0,0 UV-I 0 W/m 0,2 km/h (0 Bft)
19.09.2013 03:00 9,9 C 9,0 C 96 % 1008,6 hPa 0,0 l/m 0,00 h 0,00 h 0,0 UV-I 0 W/m 0,2 km/h (0 Bft)
19.09.2013 04:00 10,0 C 9,1 C 96 % 1009,0 hPa 0,0 l/m 0,00 h 0,00 h 0,0 UV-I 0 W/m 0,2 km/h (0 Bft)
19.09.2013 05:00 10,0 C 9,1 C 96 % 1009,3 hPa 0,0 l/m 0,00 h 0,07 h 0,0 UV-I 0 W/m 0,6 km/h (0 Bft)
19.09.2013 06:00 9,5 C 8,5 C 96 % 1009,8 hPa 0,0 l/m 0,00 h 0,00 h 0,0 UV-I 0 W/m 0,3 km/h (0 Bft)
19.09.2013 07:00 9,2 C 8,3 C 97 % 1010,6 hPa 0,0 l/m 0,00 h 0,00 h 0,0 UV-I 12 W/m 0,4 km/h (0 Bft)
19.09.2013 08:00 9,7 C 8,8 C 97 % 1011,3 hPa 0,0 l/m 0,43 h 0,00 h 0,0 UV-I 91 W/m 0,6 km/h (0 Bft)
19.09.2013 09:00 11,1 C 9,9 C 94 % 1011,6 hPa 0,0 l/m 0,97 h 0,00 h 0,5 UV-I 259 W/m 0,9 km/h (0 Bft)
19.09.2013 10:00 13,3 C 11,8 C 86 % 1012,0 hPa 0,0 l/m 0,97 h 0,00 h 1,0 UV-I 400 W/m 0,8 km/h (0 Bft)
19.09.2013 11:00 14,4 C 13,5 C 79 % 1012,3 hPa 0,0 l/m 0,53 h 0,00 h 1,4 UV-I 403 W/m 2,0 km/h (1 Bft)
19.09.2013 12:00 15,1 C 14,5 C 74 % 1012,4 hPa 0,0 l/m 0,47 h 0,00 h 1,9 UV-I 400 W/m 1,6 km/h (1 Bft)
19.09.2013 13:00 14,4 C 13,7 C 77 % 1012,2 hPa 0,0 l/m 0,00 h 0,00 h 1,0 UV-I 161 W/m 2,8 km/h (1 Bft)
19.09.2013 14:00 14,0 C 13,3 C 77 % 1012,0 hPa 0,0 l/m 0,00 h 0,00 h 0,6 UV-I 159 W/m 8,4 km/h (2 Bft)
19.09.2013 15:00 14,6 C 14,3 C 72 % 1011,6 hPa 0,0 l/m 0,10 h 0,00 h 0,9 UV-I 245 W/m 8,8 km/h (2 Bft)
19.09.2013 16:00 14,6 C 13,9 C 72 % 1011,6 hPa 0,0 l/m 0,00 h 0,00 h 0,7 UV-I 150 W/m 4,9 km/h (1 Bft)
19.09.2013 17:00 14,3 C 13,3 C 75 % 1011,2 hPa 0,0 l/m 0,00 h 0,00 h 0,0 UV-I 77 W/m 1,3 km/h (1 Bft)
19.09.2013 18:00 14,2 C 13,0 C 76 % 1010,9 hPa 0,0 l/m 0,00 h 0,00 h 0,0 UV-I 53 W/m 2,3 km/h (1 Bft)
19.09.2013 19:00 13,7 C 12,1 C 79 % 1010,8 hPa 0,0 l/m 0,00 h 0,13 h 0,0 UV-I 16 W/m 0,4 km/h (0 Bft)
19.09.2013 20:00 13,3 C 11,7 C 82 % 1010,6 hPa 0,0 l/m 0,00 h 0,20 h 0,0 UV-I 0 W/m 2,0 km/h (1 Bft)
19.09.2013 21:00 13,3 C 11,9 C 82 % 1010,7 hPa 0,0 l/m 0,00 h 0,00 h 0,0 UV-I 0 W/m 7,4 km/h (2 Bft)
19.09.2013 22:00 12,4 C 11,2 C 88 % 1010,5 hPa 0,0 l/m 0,00 h 0,00 h 0,0 UV-I 0 W/m 10,5 km/h (2 Bft)
19.09.2013 23:00 12,1 C 11,0 C 89 % 1010,0 hPa 0,0 l/m 0,00 h 0,03 h 0,0 UV-I 0 W/m 9,9 km/h (2 Bft)
20.09.2013 00:00 11,8 C 10,4 C 93 % 1009,9 hPa 0,0 l/m 0,00 h 0,10 h 0,0 UV-I 0 W/m 9,1 km/h (2 Bft)
20.09.2013 01:00 12,1 C 11,1 C 93 % 1009,7 hPa 0,0 l/m 0,00 h 0,00 h 0,0 UV-I 0 W/m 13,4 km/h (3 Bft)
20.09.2013 02:00 12,4 C 11,1 C 93 % 1009,9 hPa 0,0 l/m 0,00 h 0,00 h 0,0 UV-I 0 W/m 7,1 km/h (2 Bft)
20.09.2013 03:00 12,3 C 11,3 C 95 % 1010,1 hPa 0,0 l/m 0,00 h 0,00 h 0,0 UV-I 0 W/m 2,8 km/h (1 Bft)
20.09.2013 04:00 12,6 C 11,6 C 96 % 1010,2 hPa 0,0 l/m 0,00 h 0,00 h 0,0 UV-I 0 W/m 6,5 km/h (2 Bft)
20.09.2013 05:00 12,9 C 11,8 C 96 % 1010,4 hPa 0,0 l/m 0,00 h 0,00 h 0,0 UV-I 0 W/m 3,8 km/h (1 Bft)
20.09.2013 06:00 13,2 C 12,2 C 96 % 1010,9 hPa 0,0 l/m 0,00 h 0,00 h 0,0 UV-I 0 W/m 3,8 km/h (1 Bft)
20.09.2013 07:00 13,2 C 12,2 C 96 % 1011,5 hPa 0,0 l/m 0,00 h 0,00 h 0,0 UV-I 10 W/m 4,9 km/h (1 Bft)
20.09.2013 08:00 13,4 C 12,4 C 95 % 1012,3 hPa 0,0 l/m 0,00 h 0,00 h 0,0 UV-I 47 W/m 3,4 km/h (1 Bft)
20.09.2013 09:00 14,2 C 13,5 C 92 % 1012,9 hPa 0,0 l/m 0,00 h 0,00 h 0,0 UV-I 126 W/m 7,7 km/h (2 Bft)
20.09.2013 10:00 15,2 C 14,7 C 88 % 1013,6 hPa 0,0 l/m 0,00 h 0,00 h 0,5 UV-I 188 W/m 7,1 km/h (2 Bft)
20.09.2013 11:00 15,9 C 15,5 C 85 % 1014,2 hPa 0,0 l/m 0,00 h 0,00 h 0,7 UV-I 215 W/m 11,0 km/h (2 Bft)
20.09.2013 12:00 16,0 C 15,5 C 81 % 1014,7 hPa 0,0 l/m 0,00 h 0,00 h 0,7 UV-I 170 W/m 11,1 km/h (2 Bft)
20.09.2013 13:00 16,3 C 15,7 C 79 % 1015,2 hPa 0,0 l/m 0,00 h 0,00 h 0,8 UV-I 192 W/m 11,2 km/h (2 Bft)
20.09.2013 14:00 16,3 C 15,7 C 78 % 1015,9 hPa 0,0 l/m 0,00 h 0,00 h 0,6 UV-I 147 W/m 7,4 km/h (2 Bft)
20.09.2013 15:00 16,2 C 15,4 C 78 % 1016,5 hPa 0,0 l/m 0,00 h 0,03 h 0,6 UV-I 151 W/m 9,3 km/h (2 Bft)
20.09.2013 16:00 16,3 C 15,4 C 78 % 1017,0 hPa 0,0 l/m 0,00 h 0,03 h 0,5 UV-I 112 W/m 9,2 km/h (2 Bft)
20.09.2013 17:00 16,0 C 15,2 C 81 % 1017,6 hPa 0,0 l/m 0,00 h 0,00 h 0,0 UV-I 100 W/m 7,4 km/h (2 Bft)
20.09.2013 18:00 15,6 C 14,4 C 82 % 1018,3 hPa 0,0 l/m 0,00 h 0,00 h 0,0 UV-I 48 W/m 4,2 km/h (1 Bft)
20.09.2013 19:00 15,1 C 13,7 C 83 % 1019,2 hPa 0,0 l/m 0,00 h 0,00 h 0,0 UV-I 12 W/m 2,3 km/h (1 Bft)
20.09.2013 20:00 14,3 C 12,7 C 86 % 1019,9 hPa 0,0 l/m 0,00 h 0,00 h 0,0 UV-I 0 W/m 0,4 km/h (0 Bft)
20.09.2013 21:00 12,9 C 11,2 C 90 % 1020,8 hPa 0,0 l/m 0,00 h 0,00 h 0,0 UV-I 0 W/m 0,1 km/h (0 Bft)
20.09.2013 22:00 12,8 C 11,7 C 91 % 1021,2 hPa 0,0 l/m 0,00 h 0,00 h 0,0 UV-I 0 W/m 0,0 km/h (0 Bft)
20.09.2013 23:00 12,5 C 11,1 C 92 % 1021,7 hPa 0,0 l/m 0,00 h 0,00 h 0,0 UV-I 0 W/m 0,0 km/h (0 Bft)
21.09.2013 00:00 11,6 C 10,1 C 94 % 1022,2 hPa 0,0 l/m 0,00 h 0,00 h 0,0 UV-I 0 W/m 0,0 km/h (0 Bft)
21.09.2013 01:00 10,8 C 9,5 C 95 % 1022,4 hPa 0,0 l/m 0,00 h 0,00 h 0,0 UV-I 0 W/m 0,0 km/h (0 Bft)
21.09.2013 02:00 10,1 C 8,9 C 96 % 1022,8 hPa 0,0 l/m 0,00 h 0,00 h 0,0 UV-I 0 W/m 0,0 km/h (0 Bft)
21.09.2013 03:00 9,9 C 8,8 C 97 % 1023,2 hPa 0,0 l/m 0,00 h 0,00 h 0,0 UV-I 0 W/m 0,0 km/h (0 Bft)
21.09.2013 04:00 9,3 C 7,9 C 97 % 1023,8 hPa 0,0 l/m 0,00 h 0,00 h 0,0 UV-I 0 W/m 0,0 km/h (0 Bft)
21.09.2013 05:00 8,9 C 7,6 C 98 % 1024,0 hPa 0,0 l/m 0,00 h 0,00 h 0,0 UV-I 0 W/m 0,0 km/h (0 Bft)
21.09.2013 06:00 8,2 C 6,8 C 98 % 1024,2 hPa 0,0 l/m 0,00 h 0,00 h 0,0 UV-I 0 W/m 0,0 km/h (0 Bft)
21.09.2013 07:00 7,7 C 6,5 C 98 % 1024,4 hPa 0,0 l/m 0,00 h 0,00 h 0,0 UV-I 14 W/m 0,0 km/h (0 Bft)
21.09.2013 08:00 8,6 C 7,7 C 98 % 1024,7 hPa 0,0 l/m 0,43 h 0,00 h 0,0 UV-I 95 W/m 0,0 km/h (0 Bft)
21.09.2013 09:00 11,5 C 11,2 C 99 % 1025,2 hPa 0,0 l/m 0,13 h 0,00 h 0,0 UV-I 168 W/m 0,0 km/h (0 Bft)
21.09.2013 10:00 13,5 C 13,2 C 93 % 1025,7 hPa 0,0 l/m 0,70 h 0,00 h 0,8 UV-I 287 W/m 0,0 km/h (0 Bft)
21.09.2013 11:00 15,4 C 14,9 C 82 % 1025,9 hPa 0,0 l/m 0,73 h 0,00 h 1,4 UV-I 386 W/m 0,0 km/h (0 Bft)
21.09.2013 12:00 16,1 C 16,3 C 76 % 1026,3 hPa 0,0 l/m 0,33 h 0,00 h 1,4 UV-I 307 W/m 0,0 km/h (0 Bft)
21.09.2013 13:00 16,6 C 16,7 C 73 % 1026,2 hPa 0,0 l/m 0,00 h 0,00 h 1,2 UV-I 262 W/m 0,0 km/h (0 Bft)
21.09.2013 14:00 16,8 C 16,6 C 72 % 1025,9 hPa 0,0 l/m 0,03 h 0,00 h 1,0 UV-I 219 W/m 0,0 km/h (0 Bft)
21.09.2013 15:00 17,6 C 17,2 C 70 % 1025,9 hPa 0,0 l/m 0,37 h 0,00 h 1,1 UV-I 313 W/m 0,0 km/h (0 Bft)
21.09.2013 16:00 17,7 C 17,2 C 70 % 1025,9 hPa 0,0 l/m 0,40 h 0,00 h 0,6 UV-I 252 W/m 0,0 km/h (0 Bft)
21.09.2013 17:00 17,1 C 16,1 C 72 % 1025,8 hPa 0,0 l/m 0,07 h 0,00 h 0,0 UV-I 119 W/m 0,0 km/h (0 Bft)
21.09.2013 18:00 16,4 C 15,0 C 76 % 1026,0 hPa 0,0 l/m 0,00 h 0,00 h 0,0 UV-I 45 W/m 0,0 km/h (0 Bft)
21.09.2013 19:00 14,5 C 12,6 C 84 % 1026,0 hPa 0,0 l/m 0,00 h 0,00 h 0,0 UV-I 14 W/m 0,0 km/h (0 Bft)
21.09.2013 20:00 12,4 C 10,6 C 91 % 1026,3 hPa 0,0 l/m 0,00 h 0,00 h 0,0 UV-I 0 W/m 0,0 km/h (0 Bft)
21.09.2013 21:00 11,3 C 9,7 C 94 % 1026,6 hPa 0,0 l/m 0,00 h 0,00 h 0,0 UV-I 0 W/m 0,0 km/h (0 Bft)
21.09.2013 22:00 10,7 C 9,2 C 96 % 1026,7 hPa 0,0 l/m 0,00 h 0,00 h 0,0 UV-I 0 W/m 0,0 km/h (0 Bft)
21.09.2013 23:00 10,5 C 9,3 C 97 % 1026,8 hPa 0,0 l/m 0,00 h 0,00 h 0,0 UV-I 0 W/m 0,0 km/h (0 Bft)
22.09.2013 00:00 10,6 C 8,9 C 96 % 1026,7 hPa 0,0 l/m 0,00 h 0,00 h 0,0 UV-I 0 W/m 0,0 km/h (0 Bft)
22.09.2013 01:00 11,1 C 10,0 C 96 % 1026,7 hPa 0,0 l/m 0,00 h 0,00 h 0,0 UV-I 0 W/m 0,0 km/h (0 Bft)
22.09.2013 02:00 11,7 C 10,7 C 94 % 1026,6 hPa 0,0 l/m 0,00 h 0,00 h 0,0 UV-I 0 W/m 0,0 km/h (0 Bft)
22.09.2013 03:00 12,4 C 11,1 C 91 % 1026,5 hPa 0,0 l/m 0,00 h 0,00 h 0,0 UV-I 0 W/m 0,0 km/h (0 Bft)
22.09.2013 04:00 12,7 C 11,7 C 91 % 1026,6 hPa 0,0 l/m 0,00 h 0,00 h 0,0 UV-I 0 W/m 0,0 km/h (0 Bft)
22.09.2013 05:00 12,8 C 11,7 C 92 % 1026,5 hPa 0,0 l/m 0,00 h 0,00 h 0,0 UV-I 0 W/m 0,0 km/h (0 Bft)
22.09.2013 06:00 12,6 C 11,7 C 93 % 1026,6 hPa 0,0 l/m 0,00 h 0,00 h 0,0 UV-I 0 W/m 0,0 km/h (0 Bft)
22.09.2013 07:00 12,7 C 11,7 C 94 % 1026,6 hPa 0,0 l/m 0,00 h 0,00 h 0,0 UV-I 8 W/m 0,0 km/h (0 Bft)
22.09.2013 08:00 13,2 C 12,4 C 94 % 1026,9 hPa 0,0 l/m 0,00 h 0,00 h 0,0 UV-I 43 W/m 0,0 km/h (0 Bft)
22.09.2013 09:00 14,3 C 13,8 C 92 % 1027,2 hPa 0,0 l/m 0,00 h 0,00 h 0,0 UV-I 122 W/m 0,0 km/h (0 Bft)
22.09.2013 10:00 15,5 C 15,2 C 92 % 1027,5 hPa 0,0 l/m 0,30 h 0,00 h 1,0 UV-I 233 W/m 0,0 km/h (0 Bft)
22.09.2013 11:00 17,2 C 17,1 C 87 % 1027,5 hPa 0,0 l/m 0,37 h 0,00 h 1,4 UV-I 340 W/m 0,0 km/h (0 Bft)
22.09.2013 12:00 18,1 C 18,5 C 85 % 1027,5 hPa 0,0 l/m 0,17 h 0,00 h 1,7 UV-I 317 W/m 0,0 km/h (0 Bft)
22.09.2013 13:00 18,9 C 18,7 C 81 % 1027,4 hPa 0,0 l/m 0,53 h 0,00 h 2,2 UV-I 440 W/m 0,0 km/h (0 Bft)
22.09.2013 14:00 19,5 C 19,5 C 80 % 1027,1 hPa 0,0 l/m 0,00 h 0,00 h 1,2 UV-I 235 W/m 0,0 km/h (0 Bft)
22.09.2013 15:00 19,5 C 19,1 C 81 % 1026,8 hPa 0,0 l/m 0,13 h 0,00 h 1,3 UV-I 187 W/m 0,0 km/h (0 Bft)
22.09.2013 16:00 18,9 C 17,9 C 84 % 1027,0 hPa 0,0 l/m 0,00 h 0,00 h 0,0 UV-I 68 W/m 0,0 km/h (0 Bft)
22.09.2013 17:00 18,7 C 17,6 C 86 % 1026,8 hPa 0,0 l/m 0,00 h 0,00 h 0,0 UV-I 68 W/m 0,0 km/h (0 Bft)
22.09.2013 18:00 18,8 C 17,4 C 87 % 1026,5 hPa 0,0 l/m 0,10 h 0,00 h 0,0 UV-I 69 W/m 0,0 km/h (0 Bft)
22.09.2013 19:00 17,1 C 15,0 C 91 % 1026,5 hPa 0,0 l/m 0,00 h 0,00 h 0,0 UV-I 12 W/m 0,0 km/h (0 Bft)
22.09.2013 20:00 15,2 C 13,2 C 96 % 1026,7 hPa 0,0 l/m 0,00 h 0,00 h 0,0 UV-I 0 W/m 0,0 km/h (0 Bft)
22.09.2013 21:00 14,8 C 12,9 C 97 % 1026,8 hPa 0,0 l/m 0,00 h 0,00 h 0,0 UV-I 0 W/m 0,0 km/h (0 Bft)
22.09.2013 22:00 14,5 C 12,5 C 98 % 1026,7 hPa 0,0 l/m 0,00 h 0,00 h 0,0 UV-I 0 W/m 0,0 km/h (0 Bft)
22.09.2013 23:00 14,7 C 12,8 C 98 % 1026,9 hPa 0,0 l/m 0,00 h 0,00 h 0,0 UV-I 0 W/m 0,0 km/h (0 Bft)
Min-Datum _ 17.09.13 17.09.13 16.09.13 18.09.13 - - - - - 16.09.13
_ Min-Zeit 06:16 00:54 15:28 01:44 - - - - - 00:28
Minimum _ 7,4 C 6,1 C 54 % 992,7 hPa - - - - - 0,0 km/h (0 Bft)
Max-Datum _ 22.09.13 22.09.13 18.09.13 22.09.13 16.09.13 16.09.13 16.09.13 22.09.13 16.09.13 16.09.13
_ Max-Zeit 13:54 13:54 01:40 10:22 01:02 08:30 00:00 13:46 13:52 13:28
Maximum _ 20,2 C 20,6 C 99 % 1027,6 hPa 1,4 l/m 0,03 h 0,03 h 3,3 UV-I 833 W/m 36,0 km/h
W (5 Bft)
Durchschnitt _ 12,7 C 11,7 C 88 % 1011,3 hPa #10,8 l/m #17:38 h #14:50 h 1,1 UV-I 183 W/m 4,0 km/h (1 Bft)
© 2013 W. Hausmann